sensor_id;sensor_type;location;lat;lon;timestamp;P1;durP1;ratioP1;P2;durP2;ratioP2
23230;SDS011;11784;49.818;8.632;2023-04-24T00:01:23;0.20;;;0.20;;
23230;SDS011;11784;49.818;8.632;2023-04-24T00:03:49;4.25;;;0.32;;
23230;SDS011;11784;49.818;8.632;2023-04-24T00:06:15;0.65;;;0.38;;
23230;SDS011;11784;49.818;8.632;2023-04-24T00:08:41;0.85;;;0.20;;
23230;SDS011;11784;49.818;8.632;2023-04-24T00:11:07;2.50;;;0.30;;
23230;SDS011;11784;49.818;8.632;2023-04-24T00:13:34;5.15;;;0.60;;
23230;SDS011;11784;49.818;8.632;2023-04-24T00:16:00;2.20;;;0.82;;
23230;SDS011;11784;49.818;8.632;2023-04-24T00:18:25;0.65;;;0.40;;
23230;SDS011;11784;49.818;8.632;2023-04-24T00:20:52;0.30;;;0.22;;
23230;SDS011;11784;49.818;8.632;2023-04-24T00:23:17;0.20;;;0.20;;
23230;SDS011;11784;49.818;8.632;2023-04-24T00:25:43;1.92;;;0.30;;
23230;SDS011;11784;49.818;8.632;2023-04-24T00:28:08;0.25;;;0.25;;
23230;SDS011;11784;49.818;8.632;2023-04-24T00:30:34;0.50;;;0.30;;
23230;SDS011;11784;49.818;8.632;2023-04-24T00:33:00;0.47;;;0.43;;
23230;SDS011;11784;49.818;8.632;2023-04-24T00:35:25;0.50;;;0.30;;
23230;SDS011;11784;49.818;8.632;2023-04-24T00:37:51;4.13;;;0.68;;
23230;SDS011;11784;49.818;8.632;2023-04-24T00:40:16;0.28;;;0.28;;
23230;SDS011;11784;49.818;8.632;2023-04-24T00:42:42;0.50;;;0.30;;
23230;SDS011;11784;49.818;8.632;2023-04-24T00:45:08;0.43;;;0.30;;
23230;SDS011;11784;49.818;8.632;2023-04-24T00:47:34;0.65;;;0.30;;
23230;SDS011;11784;49.818;8.632;2023-04-24T00:50:01;1.45;;;0.30;;
23230;SDS011;11784;49.818;8.632;2023-04-24T00:52:27;0.08;;;0.08;;
23230;SDS011;11784;49.818;8.632;2023-04-24T00:54:53;0.30;;;0.20;;
23230;SDS011;11784;49.818;8.632;2023-04-24T00:57:18;0.28;;;0.28;;
23230;SDS011;11784;49.818;8.632;2023-04-24T00:59:44;0.35;;;0.22;;
23230;SDS011;11784;49.818;8.632;2023-04-24T01:02:10;0.98;;;0.40;;
23230;SDS011;11784;49.818;8.632;2023-04-24T01:04:37;1.05;;;0.70;;
23230;SDS011;11784;49.818;8.632;2023-04-24T01:07:03;0.30;;;0.30;;
23230;SDS011;11784;49.818;8.632;2023-04-24T01:09:34;0.30;;;0.30;;
23230;SDS011;11784;49.818;8.632;2023-04-24T01:12:01;1.48;;;0.68;;
23230;SDS011;11784;49.818;8.632;2023-04-24T01:14:27;0.65;;;0.30;;
23230;SDS011;11784;49.818;8.632;2023-04-24T01:16:53;0.52;;;0.40;;
23230;SDS011;11784;49.818;8.632;2023-04-24T01:19:18;0.40;;;0.30;;
23230;SDS011;11784;49.818;8.632;2023-04-24T01:21:44;1.10;;;0.63;;
23230;SDS011;11784;49.818;8.632;2023-04-24T01:24:15;0.63;;;0.30;;
23230;SDS011;11784;49.818;8.632;2023-04-24T01:26:41;0.32;;;0.22;;
23230;SDS011;11784;49.818;8.632;2023-04-24T01:29:06;3.47;;;0.47;;
23230;SDS011;11784;49.818;8.632;2023-04-24T01:31:33;1.65;;;0.40;;
23230;SDS011;11784;49.818;8.632;2023-04-24T01:33:59;2.05;;;0.40;;
23230;SDS011;11784;49.818;8.632;2023-04-24T01:36:25;1.77;;;0.40;;
23230;SDS011;11784;49.818;8.632;2023-04-24T01:38:53;0.57;;;0.20;;
23230;SDS011;11784;49.818;8.632;2023-04-24T01:41:19;2.00;;;0.30;;
23230;SDS011;11784;49.818;8.632;2023-04-24T01:43:45;2.95;;;0.55;;
23230;SDS011;11784;49.818;8.632;2023-04-24T01:46:11;1.33;;;0.30;;
23230;SDS011;11784;49.818;8.632;2023-04-24T01:48:36;0.20;;;0.20;;
23230;SDS011;11784;49.818;8.632;2023-04-24T01:51:02;0.52;;;0.30;;
23230;SDS011;11784;49.818;8.632;2023-04-24T01:53:27;0.45;;;0.30;;
23230;SDS011;11784;49.818;8.632;2023-04-24T01:55:53;0.40;;;0.40;;
23230;SDS011;11784;49.818;8.632;2023-04-24T01:58:18;2.05;;;0.50;;
23230;SDS011;11784;49.818;8.632;2023-04-24T02:00:44;0.28;;;0.28;;
23230;SDS011;11784;49.818;8.632;2023-04-24T02:03:09;0.52;;;0.40;;
23230;SDS011;11784;49.818;8.632;2023-04-24T02:05:35;0.38;;;0.30;;
23230;SDS011;11784;49.818;8.632;2023-04-24T02:08:01;0.22;;;0.22;;
23230;SDS011;11784;49.818;8.632;2023-04-24T02:10:27;1.15;;;0.57;;
23230;SDS011;11784;49.818;8.632;2023-04-24T02:12:52;0.25;;;0.20;;
23230;SDS011;11784;49.818;8.632;2023-04-24T02:15:18;0.20;;;0.20;;
23230;SDS011;11784;49.818;8.632;2023-04-24T02:17:43;0.20;;;0.20;;
23230;SDS011;11784;49.818;8.632;2023-04-24T02:20:09;0.50;;;0.50;;
23230;SDS011;11784;49.818;8.632;2023-04-24T02:22:35;0.52;;;0.20;;
23230;SDS011;11784;49.818;8.632;2023-04-24T02:25:00;0.80;;;0.50;;
23230;SDS011;11784;49.818;8.632;2023-04-24T02:27:26;0.40;;;0.22;;
23230;SDS011;11784;49.818;8.632;2023-04-24T02:29:52;0.60;;;0.40;;
23230;SDS011;11784;49.818;8.632;2023-04-24T02:32:17;0.20;;;0.20;;
23230;SDS011;11784;49.818;8.632;2023-04-24T02:34:43;0.65;;;0.47;;
23230;SDS011;11784;49.818;8.632;2023-04-24T02:37:08;0.20;;;0.20;;
23230;SDS011;11784;49.818;8.632;2023-04-24T02:39:34;0.47;;;0.47;;
23230;SDS011;11784;49.818;8.632;2023-04-24T02:42:00;4.85;;;0.57;;
23230;SDS011;11784;49.818;8.632;2023-04-24T02:44:26;2.00;;;0.30;;
23230;SDS011;11784;49.818;8.632;2023-04-24T02:46:52;0.68;;;0.40;;
23230;SDS011;11784;49.818;8.632;2023-04-24T02:49:17;0.22;;;0.22;;
23230;SDS011;11784;49.818;8.632;2023-04-24T02:51:42;1.17;;;0.30;;
23230;SDS011;11784;49.818;8.632;2023-04-24T02:54:08;0.95;;;0.38;;
23230;SDS011;11784;49.818;8.632;2023-04-24T02:56:37;0.57;;;0.32;;
23230;SDS011;11784;49.818;8.632;2023-04-24T02:59:02;0.40;;;0.30;;
23230;SDS011;11784;49.818;8.632;2023-04-24T03:01:28;0.45;;;0.20;;
23230;SDS011;11784;49.818;8.632;2023-04-24T03:03:54;0.50;;;0.43;;
23230;SDS011;11784;49.818;8.632;2023-04-24T03:06:19;0.45;;;0.30;;
23230;SDS011;11784;49.818;8.632;2023-04-24T03:08:45;0.90;;;0.40;;
23230;SDS011;11784;49.818;8.632;2023-04-24T03:11:11;0.88;;;0.43;;
23230;SDS011;11784;49.818;8.632;2023-04-24T03:13:36;0.65;;;0.30;;
23230;SDS011;11784;49.818;8.632;2023-04-24T03:16:02;0.73;;;0.40;;
23230;SDS011;11784;49.818;8.632;2023-04-24T03:18:27;1.50;;;0.68;;
23230;SDS011;11784;49.818;8.632;2023-04-24T03:20:53;3.08;;;0.60;;
23230;SDS011;11784;49.818;8.632;2023-04-24T03:23:18;0.65;;;0.40;;
23230;SDS011;11784;49.818;8.632;2023-04-24T03:25:44;0.28;;;0.28;;
23230;SDS011;11784;49.818;8.632;2023-04-24T03:28:10;0.28;;;0.28;;
23230;SDS011;11784;49.818;8.632;2023-04-24T03:30:35;2.63;;;0.40;;
23230;SDS011;11784;49.818;8.632;2023-04-24T03:33:01;0.43;;;0.40;;
23230;SDS011;11784;49.818;8.632;2023-04-24T03:35:26;0.28;;;0.22;;
23230;SDS011;11784;49.818;8.632;2023-04-24T03:37:52;0.20;;;0.20;;
23230;SDS011;11784;49.818;8.632;2023-04-24T03:40:17;2.55;;;0.70;;
23230;SDS011;11784;49.818;8.632;2023-04-24T03:42:43;1.55;;;0.30;;
23230;SDS011;11784;49.818;8.632;2023-04-24T03:45:08;2.38;;;0.60;;
23230;SDS011;11784;49.818;8.632;2023-04-24T03:47:34;0.77;;;0.40;;
23230;SDS011;11784;49.818;8.632;2023-04-24T03:50:01;3.30;;;0.20;;
23230;SDS011;11784;49.818;8.632;2023-04-24T03:52:27;0.60;;;0.40;;
23230;SDS011;11784;49.818;8.632;2023-04-24T03:54:52;0.38;;;0.38;;
23230;SDS011;11784;49.818;8.632;2023-04-24T03:57:18;0.47;;;0.30;;
23230;SDS011;11784;49.818;8.632;2023-04-24T03:59:44;0.52;;;0.28;;
23230;SDS011;11784;49.818;8.632;2023-04-24T04:02:09;0.60;;;0.40;;
23230;SDS011;11784;49.818;8.632;2023-04-24T04:04:35;1.75;;;0.30;;
23230;SDS011;11784;49.818;8.632;2023-04-24T04:07:00;0.55;;;0.50;;
23230;SDS011;11784;49.818;8.632;2023-04-24T04:09:27;1.83;;;0.35;;
23230;SDS011;11784;49.818;8.632;2023-04-24T04:11:53;8.43;;;0.60;;
23230;SDS011;11784;49.818;8.632;2023-04-24T04:14:19;0.47;;;0.45;;
23230;SDS011;11784;49.818;8.632;2023-04-24T04:16:44;0.38;;;0.30;;
23230;SDS011;11784;49.818;8.632;2023-04-24T04:19:10;0.77;;;0.57;;
23230;SDS011;11784;49.818;8.632;2023-04-24T04:21:35;0.57;;;0.57;;
23230;SDS011;11784;49.818;8.632;2023-04-24T04:24:01;0.40;;;0.40;;
23230;SDS011;11784;49.818;8.632;2023-04-24T04:26:26;0.52;;;0.32;;
23230;SDS011;11784;49.818;8.632;2023-04-24T04:28:52;0.95;;;0.57;;
23230;SDS011;11784;49.818;8.632;2023-04-24T04:31:19;0.45;;;0.30;;
23230;SDS011;11784;49.818;8.632;2023-04-24T04:33:45;2.17;;;0.98;;
23230;SDS011;11784;49.818;8.632;2023-04-24T04:36:10;0.75;;;0.50;;
23230;SDS011;11784;49.818;8.632;2023-04-24T04:38:37;0.50;;;0.40;;
23230;SDS011;11784;49.818;8.632;2023-04-24T04:41:02;0.40;;;0.38;;
23230;SDS011;11784;49.818;8.632;2023-04-24T04:43:28;0.55;;;0.55;;
23230;SDS011;11784;49.818;8.632;2023-04-24T04:45:53;0.93;;;0.75;;
23230;SDS011;11784;49.818;8.632;2023-04-24T04:48:20;1.65;;;0.68;;
23230;SDS011;11784;49.818;8.632;2023-04-24T04:50:47;0.50;;;0.50;;
23230;SDS011;11784;49.818;8.632;2023-04-24T04:53:12;11.00;;;0.80;;
23230;SDS011;11784;49.818;8.632;2023-04-24T04:55:38;0.20;;;0.20;;
23230;SDS011;11784;49.818;8.632;2023-04-24T04:58:03;0.60;;;0.50;;
23230;SDS011;11784;49.818;8.632;2023-04-24T05:00:29;1.20;;;0.70;;
23230;SDS011;11784;49.818;8.632;2023-04-24T05:03:00;0.95;;;0.80;;
23230;SDS011;11784;49.818;8.632;2023-04-24T05:05:26;1.02;;;0.60;;
23230;SDS011;11784;49.818;8.632;2023-04-24T05:07:51;0.43;;;0.40;;
23230;SDS011;11784;49.818;8.632;2023-04-24T05:10:17;0.82;;;0.70;;
23230;SDS011;11784;49.818;8.632;2023-04-24T05:12:42;0.80;;;0.68;;
23230;SDS011;11784;49.818;8.632;2023-04-24T05:15:08;0.43;;;0.40;;
23230;SDS011;11784;49.818;8.632;2023-04-24T05:17:33;1.10;;;0.77;;
23230;SDS011;11784;49.818;8.632;2023-04-24T05:19:59;0.68;;;0.68;;
23230;SDS011;11784;49.818;8.632;2023-04-24T05:22:25;0.55;;;0.43;;
23230;SDS011;11784;49.818;8.632;2023-04-24T05:24:51;1.88;;;0.95;;
23230;SDS011;11784;49.818;8.632;2023-04-24T05:27:16;1.08;;;0.65;;
23230;SDS011;11784;49.818;8.632;2023-04-24T05:29:42;0.68;;;0.65;;
23230;SDS011;11784;49.818;8.632;2023-04-24T05:32:08;1.52;;;0.70;;
23230;SDS011;11784;49.818;8.632;2023-04-24T05:34:33;0.57;;;0.57;;
23230;SDS011;11784;49.818;8.632;2023-04-24T05:36:59;1.48;;;0.70;;
23230;SDS011;11784;49.818;8.632;2023-04-24T05:39:25;3.17;;;0.60;;
23230;SDS011;11784;49.818;8.632;2023-04-24T05:41:52;0.93;;;0.65;;
23230;SDS011;11784;49.818;8.632;2023-04-24T05:44:17;1.55;;;0.90;;
23230;SDS011;11784;49.818;8.632;2023-04-24T05:46:43;4.50;;;0.70;;
23230;SDS011;11784;49.818;8.632;2023-04-24T05:49:08;0.93;;;0.57;;
23230;SDS011;11784;49.818;8.632;2023-04-24T05:51:34;0.47;;;0.47;;
23230;SDS011;11784;49.818;8.632;2023-04-24T05:54:00;0.82;;;0.63;;
23230;SDS011;11784;49.818;8.632;2023-04-24T05:56:26;1.60;;;0.98;;
23230;SDS011;11784;49.818;8.632;2023-04-24T05:58:52;2.20;;;1.27;;
23230;SDS011;11784;49.818;8.632;2023-04-24T06:01:17;2.95;;;1.10;;
23230;SDS011;11784;49.818;8.632;2023-04-24T06:03:43;0.88;;;0.70;;
23230;SDS011;11784;49.818;8.632;2023-04-24T06:06:08;0.88;;;0.68;;
23230;SDS011;11784;49.818;8.632;2023-04-24T06:08:34;0.95;;;0.70;;
23230;SDS011;11784;49.818;8.632;2023-04-24T06:11:00;2.05;;;0.55;;
23230;SDS011;11784;49.818;8.632;2023-04-24T06:13:26;0.93;;;0.63;;
23230;SDS011;11784;49.818;8.632;2023-04-24T06:15:52;2.25;;;1.63;;
23230;SDS011;11784;49.818;8.632;2023-04-24T06:18:18;1.95;;;0.70;;
23230;SDS011;11784;49.818;8.632;2023-04-24T06:20:44;1.60;;;0.90;;
23230;SDS011;11784;49.818;8.632;2023-04-24T06:23:10;1.98;;;0.93;;
23230;SDS011;11784;49.818;8.632;2023-04-24T06:25:36;2.22;;;0.85;;
23230;SDS011;11784;49.818;8.632;2023-04-24T06:28:02;3.13;;;0.88;;
23230;SDS011;11784;49.818;8.632;2023-04-24T06:30:28;0.73;;;0.60;;
23230;SDS011;11784;49.818;8.632;2023-04-24T06:32:53;2.67;;;1.40;;
23230;SDS011;11784;49.818;8.632;2023-04-24T06:35:19;1.80;;;0.85;;
23230;SDS011;11784;49.818;8.632;2023-04-24T06:37:44;1.63;;;1.08;;
23230;SDS011;11784;49.818;8.632;2023-04-24T06:40:10;2.35;;;1.45;;
23230;SDS011;11784;49.818;8.632;2023-04-24T06:42:36;3.75;;;1.13;;
23230;SDS011;11784;49.818;8.632;2023-04-24T06:45:02;2.38;;;1.27;;
23230;SDS011;11784;49.818;8.632;2023-04-24T06:47:28;2.83;;;1.55;;
23230;SDS011;11784;49.818;8.632;2023-04-24T06:49:54;2.55;;;1.63;;
23230;SDS011;11784;49.818;8.632;2023-04-24T06:52:20;1.80;;;1.17;;
23230;SDS011;11784;49.818;8.632;2023-04-24T06:54:45;1.88;;;1.33;;
23230;SDS011;11784;49.818;8.632;2023-04-24T06:57:11;1.73;;;1.08;;
23230;SDS011;11784;49.818;8.632;2023-04-24T06:59:37;4.10;;;1.20;;
23230;SDS011;11784;49.818;8.632;2023-04-24T07:02:02;2.33;;;1.45;;
23230;SDS011;11784;49.818;8.632;2023-04-24T07:04:28;7.85;;;1.40;;
23230;SDS011;11784;49.818;8.632;2023-04-24T07:06:54;6.40;;;1.30;;
23230;SDS011;11784;49.818;8.632;2023-04-24T07:09:22;1.73;;;1.00;;
23230;SDS011;11784;49.818;8.632;2023-04-24T07:11:50;2.78;;;1.45;;
23230;SDS011;11784;49.818;8.632;2023-04-24T07:14:16;2.45;;;1.60;;
23230;SDS011;11784;49.818;8.632;2023-04-24T07:16:42;1.52;;;1.13;;
23230;SDS011;11784;49.818;8.632;2023-04-24T07:19:08;4.10;;;1.67;;
23230;SDS011;11784;49.818;8.632;2023-04-24T07:21:34;2.20;;;1.35;;
23230;SDS011;11784;49.818;8.632;2023-04-24T07:23:59;1.85;;;1.10;;
23230;SDS011;11784;49.818;8.632;2023-04-24T07:26:25;2.50;;;1.75;;
23230;SDS011;11784;49.818;8.632;2023-04-24T07:28:52;4.00;;;1.35;;
23230;SDS011;11784;49.818;8.632;2023-04-24T07:31:17;1.63;;;0.80;;
23230;SDS011;11784;49.818;8.632;2023-04-24T07:33:43;1.42;;;1.15;;
23230;SDS011;11784;49.818;8.632;2023-04-24T07:36:08;1.75;;;1.10;;
23230;SDS011;11784;49.818;8.632;2023-04-24T07:38:40;1.40;;;0.93;;
23230;SDS011;11784;49.818;8.632;2023-04-24T07:41:06;1.92;;;1.08;;
23230;SDS011;11784;49.818;8.632;2023-04-24T07:43:31;1.52;;;1.00;;
23230;SDS011;11784;49.818;8.632;2023-04-24T07:45:57;2.15;;;1.20;;
23230;SDS011;11784;49.818;8.632;2023-04-24T07:48:22;1.67;;;1.05;;
23230;SDS011;11784;49.818;8.632;2023-04-24T07:50:50;1.13;;;1.02;;
23230;SDS011;11784;49.818;8.632;2023-04-24T07:53:15;2.38;;;0.88;;
23230;SDS011;11784;49.818;8.632;2023-04-24T07:55:41;1.27;;;1.00;;
23230;SDS011;11784;49.818;8.632;2023-04-24T07:58:06;4.43;;;1.00;;
23230;SDS011;11784;49.818;8.632;2023-04-24T08:00:32;1.38;;;0.77;;
23230;SDS011;11784;49.818;8.632;2023-04-24T08:02:57;2.15;;;1.23;;
23230;SDS011;11784;49.818;8.632;2023-04-24T08:05:23;1.08;;;0.60;;
23230;SDS011;11784;49.818;8.632;2023-04-24T08:07:50;1.42;;;0.75;;
23230;SDS011;11784;49.818;8.632;2023-04-24T08:10:15;1.80;;;0.55;;
23230;SDS011;11784;49.818;8.632;2023-04-24T08:12:41;0.70;;;0.50;;
23230;SDS011;11784;49.818;8.632;2023-04-24T08:15:07;2.28;;;0.88;;
23230;SDS011;11784;49.818;8.632;2023-04-24T08:17:34;0.50;;;0.50;;
23230;SDS011;11784;49.818;8.632;2023-04-24T08:20:00;2.55;;;0.90;;
23230;SDS011;11784;49.818;8.632;2023-04-24T08:22:27;1.10;;;0.60;;
23230;SDS011;11784;49.818;8.632;2023-04-24T08:24:53;2.08;;;0.75;;
23230;SDS011;11784;49.818;8.632;2023-04-24T08:27:19;0.95;;;0.60;;
23230;SDS011;11784;49.818;8.632;2023-04-24T08:29:44;1.05;;;0.70;;
23230;SDS011;11784;49.818;8.632;2023-04-24T08:32:10;1.33;;;0.80;;
23230;SDS011;11784;49.818;8.632;2023-04-24T08:34:35;1.63;;;1.02;;
23230;SDS011;11784;49.818;8.632;2023-04-24T08:37:01;1.25;;;0.80;;
23230;SDS011;11784;49.818;8.632;2023-04-24T08:39:27;1.35;;;0.75;;
23230;SDS011;11784;49.818;8.632;2023-04-24T08:41:53;1.90;;;0.93;;
23230;SDS011;11784;49.818;8.632;2023-04-24T08:44:20;1.48;;;0.85;;
23230;SDS011;11784;49.818;8.632;2023-04-24T08:46:47;0.93;;;0.65;;
23230;SDS011;11784;49.818;8.632;2023-04-24T08:49:14;0.98;;;0.80;;
23230;SDS011;11784;49.818;8.632;2023-04-24T08:51:42;1.95;;;1.17;;
23230;SDS011;11784;49.818;8.632;2023-04-24T08:54:09;3.50;;;0.90;;
23230;SDS011;11784;49.818;8.632;2023-04-24T08:56:37;1.52;;;0.73;;
23230;SDS011;11784;49.818;8.632;2023-04-24T08:59:05;1.25;;;0.82;;
23230;SDS011;11784;49.818;8.632;2023-04-24T09:01:32;0.98;;;0.70;;
23230;SDS011;11784;49.818;8.632;2023-04-24T09:03:59;1.17;;;0.80;;
23230;SDS011;11784;49.818;8.632;2023-04-24T09:06:29;1.02;;;0.60;;
23230;SDS011;11784;49.818;8.632;2023-04-24T09:08:55;2.40;;;0.75;;
23230;SDS011;11784;49.818;8.632;2023-04-24T09:11:23;2.95;;;0.77;;
23230;SDS011;11784;49.818;8.632;2023-04-24T09:13:49;0.82;;;0.70;;
23230;SDS011;11784;49.818;8.632;2023-04-24T09:16:16;1.23;;;0.52;;
23230;SDS011;11784;49.818;8.632;2023-04-24T09:18:42;1.58;;;0.98;;
23230;SDS011;11784;49.818;8.632;2023-04-24T09:21:07;0.82;;;0.63;;
23230;SDS011;11784;49.818;8.632;2023-04-24T09:23:34;1.13;;;0.90;;
23230;SDS011;11784;49.818;8.632;2023-04-24T09:26:00;0.77;;;0.68;;
23230;SDS011;11784;49.818;8.632;2023-04-24T09:33:28;2.03;;;0.75;;
23230;SDS011;11784;49.818;8.632;2023-04-24T09:35:54;4.15;;;1.17;;
23230;SDS011;11784;49.818;8.632;2023-04-24T09:38:24;1.48;;;0.80;;
23230;SDS011;11784;49.818;8.632;2023-04-24T09:41:04;1.83;;;1.02;;
23230;SDS011;11784;49.818;8.632;2023-04-24T09:43:31;3.00;;;0.90;;
23230;SDS011;11784;49.818;8.632;2023-04-24T09:45:57;1.42;;;0.77;;
23230;SDS011;11784;49.818;8.632;2023-04-24T09:48:34;1.30;;;0.73;;
23230;SDS011;11784;49.818;8.632;2023-04-24T09:51:02;0.95;;;0.75;;
23230;SDS011;11784;49.818;8.632;2023-04-24T09:53:29;1.25;;;0.82;;
23230;SDS011;11784;49.818;8.632;2023-04-24T09:55:55;1.02;;;0.75;;
23230;SDS011;11784;49.818;8.632;2023-04-24T09:58:26;3.15;;;0.98;;
23230;SDS011;11784;49.818;8.632;2023-04-24T10:00:54;2.15;;;1.00;;
23230;SDS011;11784;49.818;8.632;2023-04-24T10:03:20;1.98;;;1.20;;
23230;SDS011;11784;49.818;8.632;2023-04-24T10:05:48;1.73;;;1.17;;
23230;SDS011;11784;49.818;8.632;2023-04-24T10:08:16;2.22;;;0.93;;
23230;SDS011;11784;49.818;8.632;2023-04-24T10:10:42;2.03;;;1.20;;
23230;SDS011;11784;49.818;8.632;2023-04-24T10:13:09;1.52;;;1.00;;
23230;SDS011;11784;49.818;8.632;2023-04-24T10:15:36;3.42;;;1.02;;
23230;SDS011;11784;49.818;8.632;2023-04-24T10:18:03;1.52;;;0.77;;
23230;SDS011;11784;49.818;8.632;2023-04-24T10:20:32;1.02;;;0.70;;
23230;SDS011;11784;49.818;8.632;2023-04-24T10:23:00;1.45;;;0.70;;
23230;SDS011;11784;49.818;8.632;2023-04-24T10:25:27;1.30;;;0.85;;
23230;SDS011;11784;49.818;8.632;2023-04-24T10:27:55;1.30;;;0.80;;
23230;SDS011;11784;49.818;8.632;2023-04-24T10:30:26;1.77;;;0.90;;
23230;SDS011;11784;49.818;8.632;2023-04-24T10:32:53;0.98;;;0.60;;
23230;SDS011;11784;49.818;8.632;2023-04-24T10:35:19;2.13;;;0.98;;
23230;SDS011;11784;49.818;8.632;2023-04-24T10:37:50;1.10;;;0.57;;
23230;SDS011;11784;49.818;8.632;2023-04-24T10:40:29;1.10;;;0.82;;
23230;SDS011;11784;49.818;8.632;2023-04-24T10:42:56;2.25;;;0.80;;
23230;SDS011;11784;49.818;8.632;2023-04-24T10:45:22;1.77;;;0.93;;
23230;SDS011;11784;49.818;8.632;2023-04-24T10:48:07;2.05;;;0.88;;
23230;SDS011;11784;49.818;8.632;2023-04-24T10:50:45;5.65;;;0.90;;
23230;SDS011;11784;49.818;8.632;2023-04-24T10:53:14;4.32;;;0.88;;
23230;SDS011;11784;49.818;8.632;2023-04-24T10:56:15;1.10;;;0.80;;
23230;SDS011;11784;49.818;8.632;2023-04-24T10:58:42;1.95;;;0.80;;
23230;SDS011;11784;49.818;8.632;2023-04-24T11:01:30;1.25;;;0.85;;
23230;SDS011;11784;49.818;8.632;2023-04-24T11:03:58;0.88;;;0.63;;
23230;SDS011;11784;49.818;8.632;2023-04-24T11:06:33;1.60;;;0.85;;
23230;SDS011;11784;49.818;8.632;2023-04-24T11:09:04;0.88;;;0.60;;
23230;SDS011;11784;49.818;8.632;2023-04-24T11:11:35;1.10;;;0.70;;
23230;SDS011;11784;49.818;8.632;2023-04-24T11:14:03;3.20;;;1.00;;
23230;SDS011;11784;49.818;8.632;2023-04-24T11:16:31;0.80;;;0.63;;
23230;SDS011;11784;49.818;8.632;2023-04-24T11:21:44;0.93;;;0.70;;
23230;SDS011;11784;49.818;8.632;2023-04-24T11:27:05;1.45;;;0.80;;
23230;SDS011;11784;49.818;8.632;2023-04-24T11:34:55;1.50;;;1.02;;
23230;SDS011;11784;49.818;8.632;2023-04-24T11:39:55;3.00;;;1.23;;
23230;SDS011;11784;49.818;8.632;2023-04-24T11:42:22;1.33;;;1.00;;
23230;SDS011;11784;49.818;8.632;2023-04-24T11:44:54;1.75;;;0.95;;
23230;SDS011;11784;49.818;8.632;2023-04-24T11:47:31;1.15;;;0.73;;
23230;SDS011;11784;49.818;8.632;2023-04-24T11:49:58;2.05;;;1.13;;
23230;SDS011;11784;49.818;8.632;2023-04-24T11:52:25;3.83;;;1.02;;
23230;SDS011;11784;49.818;8.632;2023-04-24T11:54:51;2.55;;;1.10;;
23230;SDS011;11784;49.818;8.632;2023-04-24T11:57:19;1.90;;;1.25;;
23230;SDS011;11784;49.818;8.632;2023-04-24T11:59:46;0.98;;;0.77;;
23230;SDS011;11784;49.818;8.632;2023-04-24T12:02:24;1.23;;;0.98;;
23230;SDS011;11784;49.818;8.632;2023-04-24T12:04:54;5.75;;;0.93;;
23230;SDS011;11784;49.818;8.632;2023-04-24T12:07:20;0.82;;;0.77;;
23230;SDS011;11784;49.818;8.632;2023-04-24T12:09:47;1.00;;;0.80;;
23230;SDS011;11784;49.818;8.632;2023-04-24T12:12:23;0.88;;;0.70;;
23230;SDS011;11784;49.818;8.632;2023-04-24T12:14:57;1.10;;;0.82;;
23230;SDS011;11784;49.818;8.632;2023-04-24T12:17:23;1.02;;;0.55;;
23230;SDS011;11784;49.818;8.632;2023-04-24T12:19:50;0.60;;;0.47;;
23230;SDS011;11784;49.818;8.632;2023-04-24T12:22:16;0.95;;;0.50;;
23230;SDS011;11784;49.818;8.632;2023-04-24T12:25:03;1.42;;;0.93;;
23230;SDS011;11784;49.818;8.632;2023-04-24T12:27:31;1.85;;;0.80;;
23230;SDS011;11784;49.818;8.632;2023-04-24T12:29:58;1.67;;;1.13;;
23230;SDS011;11784;49.818;8.632;2023-04-24T12:32:24;1.27;;;0.95;;
23230;SDS011;11784;49.818;8.632;2023-04-24T12:34:51;4.00;;;1.17;;
23230;SDS011;11784;49.818;8.632;2023-04-24T12:37:17;1.85;;;0.98;;
23230;SDS011;11784;49.818;8.632;2023-04-24T12:39:59;1.90;;;0.95;;
23230;SDS011;11784;49.818;8.632;2023-04-24T12:42:26;1.35;;;0.88;;
23230;SDS011;11784;49.818;8.632;2023-04-24T12:44:55;1.15;;;0.80;;
23230;SDS011;11784;49.818;8.632;2023-04-24T12:47:23;1.77;;;1.13;;
23230;SDS011;11784;49.818;8.632;2023-04-24T12:49:49;2.08;;;1.15;;
23230;SDS011;11784;49.818;8.632;2023-04-24T12:52:17;1.27;;;0.75;;
23230;SDS011;11784;49.818;8.632;2023-04-24T12:54:44;1.85;;;0.95;;
23230;SDS011;11784;49.818;8.632;2023-04-24T12:57:10;2.80;;;1.35;;
23230;SDS011;11784;49.818;8.632;2023-04-24T12:59:36;2.42;;;1.25;;
23230;SDS011;11784;49.818;8.632;2023-04-24T13:02:01;1.60;;;1.13;;
23230;SDS011;11784;49.818;8.632;2023-04-24T13:04:27;1.85;;;1.17;;
23230;SDS011;11784;49.818;8.632;2023-04-24T13:06:53;8.25;;;1.38;;
23230;SDS011;11784;49.818;8.632;2023-04-24T13:09:18;4.03;;;1.10;;
23230;SDS011;11784;49.818;8.632;2023-04-24T13:11:44;1.30;;;0.93;;
23230;SDS011;11784;49.818;8.632;2023-04-24T13:14:09;1.27;;;0.75;;
23230;SDS011;11784;49.818;8.632;2023-04-24T13:16:35;1.35;;;1.02;;
23230;SDS011;11784;49.818;8.632;2023-04-24T13:19:00;5.13;;;1.25;;
23230;SDS011;11784;49.818;8.632;2023-04-24T13:21:26;1.77;;;0.93;;
23230;SDS011;11784;49.818;8.632;2023-04-24T13:23:52;1.23;;;0.95;;
23230;SDS011;11784;49.818;8.632;2023-04-24T13:26:18;1.55;;;0.80;;
23230;SDS011;11784;49.818;8.632;2023-04-24T13:28:43;1.23;;;0.70;;
23230;SDS011;11784;49.818;8.632;2023-04-24T13:31:09;2.40;;;0.93;;
23230;SDS011;11784;49.818;8.632;2023-04-24T13:33:34;1.27;;;0.65;;
23230;SDS011;11784;49.818;8.632;2023-04-24T13:36:00;1.83;;;0.70;;
23230;SDS011;11784;49.818;8.632;2023-04-24T13:38:26;1.48;;;0.60;;
23230;SDS011;11784;49.818;8.632;2023-04-24T13:40:51;1.73;;;0.90;;
23230;SDS011;11784;49.818;8.632;2023-04-24T13:43:17;2.00;;;0.82;;
23230;SDS011;11784;49.818;8.632;2023-04-24T13:45:42;0.88;;;0.60;;
23230;SDS011;11784;49.818;8.632;2023-04-24T13:48:08;2.15;;;1.02;;
23230;SDS011;11784;49.818;8.632;2023-04-24T13:50:34;2.80;;;1.40;;
23230;SDS011;11784;49.818;8.632;2023-04-24T13:52:59;1.60;;;0.95;;
23230;SDS011;11784;49.818;8.632;2023-04-24T13:55:28;1.90;;;1.30;;
23230;SDS011;11784;49.818;8.632;2023-04-24T13:57:53;2.10;;;1.05;;
23230;SDS011;11784;49.818;8.632;2023-04-24T14:00:20;1.98;;;1.13;;
23230;SDS011;11784;49.818;8.632;2023-04-24T14:02:46;2.17;;;0.85;;
23230;SDS011;11784;49.818;8.632;2023-04-24T14:05:12;2.83;;;1.02;;
23230;SDS011;11784;49.818;8.632;2023-04-24T14:07:40;2.85;;;1.05;;
23230;SDS011;11784;49.818;8.632;2023-04-24T14:10:07;2.38;;;1.08;;
23230;SDS011;11784;49.818;8.632;2023-04-24T14:12:33;3.33;;;1.02;;
23230;SDS011;11784;49.818;8.632;2023-04-24T14:14:58;1.60;;;0.90;;
23230;SDS011;11784;49.818;8.632;2023-04-24T14:17:24;0.93;;;0.60;;
23230;SDS011;11784;49.818;8.632;2023-04-24T14:19:49;2.90;;;1.25;;
23230;SDS011;11784;49.818;8.632;2023-04-24T14:22:16;1.98;;;0.80;;
23230;SDS011;11784;49.818;8.632;2023-04-24T14:24:42;2.10;;;0.90;;
23230;SDS011;11784;49.818;8.632;2023-04-24T14:27:08;1.67;;;1.02;;
23230;SDS011;11784;49.818;8.632;2023-04-24T14:29:33;0.93;;;0.80;;
23230;SDS011;11784;49.818;8.632;2023-04-24T14:31:59;1.58;;;0.80;;
23230;SDS011;11784;49.818;8.632;2023-04-24T14:34:24;2.95;;;1.30;;
23230;SDS011;11784;49.818;8.632;2023-04-24T14:36:50;7.40;;;1.10;;
23230;SDS011;11784;49.818;8.632;2023-04-24T14:39:15;1.92;;;0.85;;
23230;SDS011;11784;49.818;8.632;2023-04-24T14:41:41;3.30;;;1.55;;
23230;SDS011;11784;49.818;8.632;2023-04-24T14:44:06;1.50;;;0.90;;
23230;SDS011;11784;49.818;8.632;2023-04-24T14:46:32;3.47;;;1.60;;
23230;SDS011;11784;49.818;8.632;2023-04-24T14:48:58;1.65;;;0.82;;
23230;SDS011;11784;49.818;8.632;2023-04-24T14:51:23;0.85;;;0.70;;
23230;SDS011;11784;49.818;8.632;2023-04-24T14:53:50;2.50;;;0.57;;
23230;SDS011;11784;49.818;8.632;2023-04-24T14:56:15;1.90;;;1.02;;
23230;SDS011;11784;49.818;8.632;2023-04-24T14:58:41;4.93;;;1.55;;
23230;SDS011;11784;49.818;8.632;2023-04-24T15:01:06;1.30;;;0.73;;
23230;SDS011;11784;49.818;8.632;2023-04-24T15:03:32;0.98;;;0.57;;